Terminal Aerodrome Forecast
Issued by NWS

Home | Current Version | Previous Version | Text Only | Print | Product List | Glossary On
Versions: 1 2 3 4 5 6 7 8 9 10 11 12 13 14 15 16 17 18 19 20
821
FTUS44 KBMX 231136
TAFTCL
TAF
KTCL 231136Z 2312/2412 25004KT 6SM -RA BR BKN007
     FM231700 35002KT P6SM OVC025
     FM232000 30006KT P6SM VCTS SCT025CB BKN050
     FM240200 24003KT P6SM BKN050 OVC100
     FM240800 30003KT P6SM VCTS SCT015CB OVC025=

USA.gov is the U.S. government's official web portal to all federal, state and local government web resources and services.